Time;durP1;ratioP1;P1;durP2;ratioP2;P2;SDS_P1;SDS_P2;PMS_P1;PMS_P2;Temp;Humidity;BMP_temperature;BMP_pressure;BME280_temperature;BME280_humidity;BME280_pressure;Samples;Min_cycle;Max_cycle;Signal;HPM_P1;HPM_P2
2023/06/12 00:00:06;;;;;;;5.82;5.10;;;;;;;22.82;47.33;101531.38;5094073;28;20083;-87
2023/06/12 00:02:31;;;;;;;6.10;5.50;;;;;;;22.73;47.13;101526.31;5103185;28;20114;-85
2023/06/12 00:04:57;;;;;;;7.35;5.53;;;;;;;22.69;47.24;101534.16;5095797;28;20106;-85
2023/06/12 00:07:23;;;;;;;6.25;5.60;;;;;;;22.70;47.51;101515.75;5095961;28;20035;-85
2023/06/12 00:09:48;;;;;;;7.32;6.00;;;;;;;22.71;46.46;101517.38;5082331;28;20024;-85
2023/06/12 00:12:14;;;;;;;6.95;6.10;;;;;;;22.53;47.61;101518.63;5098513;28;20109;-86
2023/06/12 00:14:39;;;;;;;7.00;5.78;;;;;;;22.53;47.88;101517.81;5071670;28;20600;-85
2023/06/12 00:17:05;;;;;;;7.95;6.13;;;;;;;22.35;48.15;101518.28;5094451;28;20092;-85
2023/06/12 00:19:30;;;;;;;7.00;6.05;;;;;;;22.00;48.17;101532.09;5098757;28;20031;-85
2023/06/12 00:21:56;;;;;;;6.93;6.20;;;;;;;22.32;48.33;101528.50;5098028;28;20038;-85
2023/06/12 00:24:21;;;;;;;8.75;5.70;;;;;;;22.31;48.33;101520.41;5103423;28;20024;-85
2023/06/12 00:26:47;;;;;;;9.82;5.63;;;;;;;22.10;48.59;101530.25;5081620;28;20042;-85
2023/06/12 00:29:12;;;;;;;6.93;5.40;;;;;;;22.17;48.90;101529.28;5086853;28;20032;-85
2023/06/12 00:31:37;;;;;;;6.72;6.03;;;;;;;22.17;48.78;101529.28;5093200;28;20047;-85
2023/06/12 00:34:03;;;;;;;7.28;5.85;;;;;;;22.22;48.66;101525.88;5085243;28;20023;-85
2023/06/12 00:36:28;;;;;;;7.82;6.40;;;;;;;22.32;48.73;101519.94;5074914;28;20028;-85
2023/06/12 00:38:55;;;;;;;9.10;6.30;;;;;;;21.99;48.49;101524.78;5090906;28;20025;-85
2023/06/12 00:41:20;;;;;;;6.97;6.28;;;;;;;21.93;49.33;101520.84;5094560;28;20398;-85
2023/06/12 00:43:46;;;;;;;8.25;6.38;;;;;;;21.86;50.03;101518.16;5097418;28;20020;-84
2023/06/12 00:46:11;;;;;;;11.05;6.63;;;;;;;21.91;50.05;101521.28;5099530;28;20035;-84
2023/06/12 00:48:39;;;;;;;14.57;6.57;;;;;;;21.77;50.09;101506.56;5097237;28;20466;-84
2023/06/12 00:51:08;;;;;;;8.00;6.32;;;;;;;21.74;50.36;101521.69;5096708;28;20487;-85
2023/06/12 00:53:34;;;;;;;10.77;6.53;;;;;;;21.47;50.96;101514.13;5073196;28;20023;-84
2023/06/12 00:55:59;;;;;;;8.23;6.47;;;;;;;21.44;51.20;101512.97;5090808;28;20441;-84
2023/06/12 00:58:25;;;;;;;9.45;6.35;;;;;;;21.50;51.57;101510.38;5081309;28;20552;-84
2023/06/12 01:00:54;;;;;;;7.85;5.85;;;;;;;21.71;51.51;101514.81;5095340;28;20020;-84
2023/06/12 01:03:21;;;;;;;13.68;6.60;;;;;;;21.54;51.56;101524.56;5099012;28;20498;-85
2023/06/12 01:05:50;;;;;;;9.60;7.07;;;;;;;21.36;52.82;101516.34;5079167;28;20027;-85
2023/06/12 01:08:29;;;;;;;7.60;6.68;;;;;;;21.53;51.92;101515.22;5095561;28;20031;-85
2023/06/12 01:11:11;;;;;;;10.98;7.15;;;;;;;21.30;52.43;101514.00;5093862;28;20552;-84
2023/06/12 01:13:36;;;;;;;8.20;6.68;;;;;;;21.29;52.74;101506.72;5093623;28;20495;-85
2023/06/12 01:16:02;;;;;;;7.65;6.00;;;;;;;21.32;52.51;101511.53;5093111;28;20031;-85
2023/06/12 01:18:29;;;;;;;9.27;6.10;;;;;;;21.37;51.98;101517.94;5094201;28;20028;-85
2023/06/12 01:20:57;;;;;;;7.72;6.60;;;;;;;21.18;52.64;101506.09;5096733;28;20430;-84
2023/06/12 01:23:53;;;;;;;8.43;5.15;;;;;;;21.21;53.05;101508.09;5089028;28;20101;-84
2023/06/12 01:26:28;;;;;;;9.88;6.53;;;;;;;20.94;53.72;101502.50;5095572;28;20459;-85
2023/06/12 01:29:09;;;;;;;9.02;6.90;;;;;;;20.92;54.30;101507.84;5083109;28;20065;-85
2023/06/12 01:31:44;;;;;;;10.13;7.40;;;;;;;20.77;54.36;101515.81;5096696;28;20403;-85
2023/06/12 01:34:20;;;;;;;7.22;6.50;;;;;;;20.77;54.55;101509.34;5059794;28;20036;-85
2023/06/12 01:36:53;;;;;;;9.65;6.85;;;;;;;20.97;53.81;101513.00;5090402;28;20080;-85
2023/06/12 01:39:20;;;;;;;8.55;6.53;;;;;;;20.87;54.24;101514.00;5097653;28;20046;-85
2023/06/12 01:41:46;;;;;;;8.57;6.57;;;;;;;21.00;53.55;101508.50;5092577;28;20023;-84
2023/06/12 01:44:12;;;;;;;7.35;6.47;;;;;;;21.17;53.20;101510.22;5093659;28;20024;-85
2023/06/12 01:46:37;;;;;;;8.00;6.47;;;;;;;20.87;53.80;101503.44;5089917;28;20035;-85
2023/06/12 01:49:06;;;;;;;17.70;6.78;;;;;;;20.86;53.97;101504.69;5074396;28;20028;-85
2023/06/12 01:51:32;;;;;;;7.20;6.47;;;;;;;20.86;54.28;101513.22;5093911;28;20172;-85
2023/06/12 01:53:57;;;;;;;9.70;6.32;;;;;;;20.70;55.11;101510.25;5089735;28;20028;-84
2023/06/12 01:56:25;;;;;;;6.65;5.95;;;;;;;20.99;53.66;101515.44;5088065;28;20096;-84
2023/06/12 01:58:52;;;;;;;6.80;6.03;;;;;;;20.94;53.74;101507.41;5091942;28;20027;-85
2023/06/12 02:01:18;;;;;;;9.30;6.85;;;;;;;20.90;53.82;101519.66;5097693;28;20411;-84
2023/06/12 02:03:48;;;;;;;7.47;6.30;;;;;;;20.83;53.99;101525.47;5091305;28;20028;-84
2023/06/12 02:06:17;;;;;;;9.35;7.05;;;;;;;20.63;54.51;101521.75;5079851;28;20036;-85
2023/06/12 02:08:43;;;;;;;8.98;6.68;;;;;;;20.75;54.51;101524.00;5090531;28;20408;-85
2023/06/12 02:11:09;;;;;;;7.88;6.32;;;;;;;20.75;54.10;101520.34;5092793;28;20472;-84
2023/06/12 02:13:34;;;;;;;7.38;6.30;;;;;;;20.77;54.50;101518.66;5096129;28;20027;-84
2023/06/12 02:16:03;;;;;;;10.27;6.97;;;;;;;20.88;54.04;101516.44;5090333;28;20077;-85
2023/06/12 02:18:28;;;;;;;7.70;6.00;;;;;;;20.76;54.29;101519.91;5090190;28;20546;-84
2023/06/12 02:20:54;;;;;;;9.82;7.38;;;;;;;20.43;55.35;101513.94;5070664;28;20105;-85
2023/06/12 02:23:19;;;;;;;8.30;6.00;;;;;;;20.58;54.99;101525.09;5073175;28;20043;-84
2023/06/12 02:25:46;;;;;;;8.70;6.32;;;;;;;20.74;54.36;101522.38;5087802;28;20135;-85
2023/06/12 02:28:11;;;;;;;8.85;6.88;;;;;;;20.58;55.01;101516.56;5072955;28;20028;-85
2023/06/12 02:30:37;;;;;;;7.57;5.95;;;;;;;20.60;54.39;101517.75;5079207;28;20035;-84
2023/06/12 02:33:02;;;;;;;8.30;6.75;;;;;;;20.64;54.35;101521.34;5071391;28;20482;-86
2023/06/12 02:35:28;;;;;;;9.70;6.55;;;;;;;20.70;54.32;101521.63;5073989;28;20027;-84
2023/06/12 02:37:53;;;;;;;8.57;6.88;;;;;;;20.52;54.84;101519.88;5090540;28;20518;-84
2023/06/12 02:40:18;;;;;;;9.02;6.57;;;;;;;20.56;54.78;101510.47;5078445;28;20037;-84
2023/06/12 02:42:44;;;;;;;7.78;6.93;;;;;;;20.56;54.74;101522.66;5095022;28;20555;-84
2023/06/12 02:45:09;;;;;;;8.40;6.22;;;;;;;20.57;54.52;101523.44;5091235;28;20550;-84
2023/06/12 02:47:35;;;;;;;12.65;6.68;;;;;;;20.45;55.04;101522.00;5091595;28;20027;-84
2023/06/12 02:50:01;;;;;;;9.60;6.22;;;;;;;20.41;55.42;101519.25;5075218;28;20092;-84
2023/06/12 02:52:28;;;;;;;10.75;7.25;;;;;;;20.42;55.21;101520.03;5083901;28;20028;-84
2023/06/12 02:54:53;;;;;;;11.55;7.53;;;;;;;20.33;55.32;101514.91;5070242;28;20044;-84
2023/06/12 02:57:19;;;;;;;7.60;6.18;;;;;;;20.10;56.20;101519.31;5088533;28;20561;-84
2023/06/12 02:59:44;;;;;;;11.88;6.75;;;;;;;20.09;56.02;101517.72;5086158;28;20487;-84
2023/06/12 03:02:10;;;;;;;7.93;6.85;;;;;;;20.11;56.12;101514.41;5084281;28;20028;-84
2023/06/12 03:04:35;;;;;;;6.97;6.28;;;;;;;20.15;56.28;101517.22;5086851;28;20040;-84
2023/06/12 03:07:02;;;;;;;8.07;6.32;;;;;;;20.25;56.20;101519.09;5090101;28;20107;-84
2023/06/12 03:09:28;;;;;;;7.10;6.28;;;;;;;20.01;56.85;101521.09;5100434;28;20063;-84
2023/06/12 03:11:53;;;;;;;7.78;6.40;;;;;;;20.10;56.54;101519.31;5098239;28;20082;-84
2023/06/12 03:14:21;;;;;;;8.07;6.47;;;;;;;19.93;57.56;101514.69;5087023;28;20035;-84
2023/06/12 03:16:48;;;;;;;9.00;6.50;;;;;;;19.90;57.49;101515.53;5091975;28;20048;-84
2023/06/12 03:19:13;;;;;;;11.80;6.32;;;;;;;19.94;57.43;101516.28;5093407;28;20038;-84
2023/06/12 03:21:39;;;;;;;9.93;6.07;;;;;;;19.90;57.59;101521.22;5093673;28;20027;-84
2023/06/12 03:24:05;;;;;;;9.98;7.03;;;;;;;20.00;57.12;101525.94;5092236;28;20073;-84
2023/06/12 03:26:33;;;;;;;9.25;6.32;;;;;;;19.93;57.09;101509.00;5099693;28;20419;-84
2023/06/12 03:29:00;;;;;;;6.78;6.07;;;;;;;19.90;57.25;101513.50;5094990;28;20108;-84
2023/06/12 03:31:26;;;;;;;8.90;6.03;;;;;;;19.77;57.95;101520.19;5094699;28;20051;-84
2023/06/12 03:33:53;;;;;;;10.35;6.70;;;;;;;19.88;57.68;101515.97;5088107;28;20490;-84
2023/06/12 03:36:19;;;;;;;7.70;5.93;;;;;;;19.81;58.11;101513.22;5086800;28;20032;-84
2023/06/12 03:38:44;;;;;;;9.15;6.00;;;;;;;19.83;58.24;101521.31;5092279;28;20031;-84
2023/06/12 03:41:09;;;;;;;8.70;5.78;;;;;;;19.81;57.87;101512.41;5075532;28;22520;-84
2023/06/12 03:43:35;;;;;;;9.20;5.78;;;;;;;19.73;58.24;101510.91;5084327;28;20033;-84
2023/06/12 03:46:00;;;;;;;5.55;4.80;;;;;;;19.72;58.28;101518.63;5088520;28;20171;-84
2023/06/12 03:48:26;;;;;;;10.40;5.50;;;;;;;19.78;58.66;101527.50;5090234;28;20028;-83
2023/06/12 03:50:51;;;;;;;10.27;5.80;;;;;;;19.74;59.28;101523.91;5075411;28;20027;-84
2023/06/12 03:53:16;;;;;;;7.32;5.60;;;;;;;19.59;59.74;101526.88;5080669;28;20046;-84
2023/06/12 03:55:42;;;;;;;8.90;5.72;;;;;;;19.77;59.36;101531.56;5086804;28;20024;-84
2023/06/12 03:58:07;;;;;;;7.80;5.28;;;;;;;19.66;59.46;101523.13;5089881;28;20028;-84
2023/06/12 04:00:32;;;;;;;7.82;5.03;;;;;;;19.71;59.13;101525.53;5094806;28;20484;-84
2023/06/12 04:02:58;;;;;;;6.93;5.53;;;;;;;19.56;60.34;101516.34;5077066;28;20484;-84
2023/06/12 04:05:23;;;;;;;6.75;4.75;;;;;;;19.52;60.84;101521.28;5092144;28;20035;-84
2023/06/12 04:07:49;;;;;;;8.10;5.90;;;;;;;19.66;60.10;101523.94;5073727;28;20089;-84
2023/06/12 04:10:15;;;;;;;6.90;4.88;;;;;;;19.56;60.67;101521.25;5092483;28;20027;-84
2023/06/12 04:12:40;;;;;;;6.13;5.22;;;;;;;19.61;60.68;101520.78;5100714;28;20368;-84
2023/06/12 04:15:06;;;;;;;7.65;5.10;;;;;;;19.57;61.01;101526.50;5097296;28;20058;-84
2023/06/12 04:17:32;;;;;;;5.18;4.43;;;;;;;19.73;60.48;101525.09;5079852;28;20476;-84
2023/06/12 04:19:57;;;;;;;11.23;5.00;;;;;;;19.56;61.95;101515.56;5088592;28;20032;-84
2023/06/12 04:22:25;;;;;;;5.57;4.43;;;;;;;19.57;61.88;101532.19;5090201;28;20047;-84
2023/06/12 04:24:52;;;;;;;6.22;4.00;;;;;;;19.50;61.98;101526.56;5069257;28;20062;-84
2023/06/12 04:27:17;;;;;;;6.45;4.40;;;;;;;19.74;60.99;101535.25;5074123;28;20022;-85
2023/06/12 04:29:43;;;;;;;5.32;4.45;;;;;;;19.65;60.77;101528.03;5094025;28;20024;-84
2023/06/12 04:32:09;;;;;;;8.65;4.18;;;;;;;19.59;61.84;101534.59;5091827;28;20515;-84
2023/06/12 04:34:43;;;;;;;7.15;4.40;;;;;;;19.66;61.53;101531.66;5074015;28;20034;-84
2023/06/12 04:37:11;;;;;;;5.57;4.38;;;;;;;19.67;61.87;101530.44;5096854;28;20020;-85
2023/06/12 04:39:40;;;;;;;6.13;3.75;;;;;;;19.64;61.95;101529.25;5090784;28;20499;-84
2023/06/12 04:42:07;;;;;;;5.95;4.60;;;;;;;19.84;60.95;101525.78;5083685;28;20485;-85
2023/06/12 04:44:34;;;;;;;5.93;4.40;;;;;;;19.70;62.81;101530.41;5087615;28;20032;-84
2023/06/12 04:47:14;;;;;;;5.60;4.55;;;;;;;19.72;63.44;101529.19;5069132;28;20551;-84
2023/06/12 04:49:41;;;;;;;4.68;4.00;;;;;;;19.77;63.55;101538.03;5076604;28;20036;-84
2023/06/12 04:52:12;;;;;;;6.93;4.30;;;;;;;19.75;63.86;101539.69;5079475;28;20403;-84
2023/06/12 04:54:41;;;;;;;7.13;4.57;;;;;;;19.74;63.49;101524.69;5095975;28;20534;-84
2023/06/12 04:57:12;;;;;;;8.35;4.38;;;;;;;19.69;62.42;101525.94;5097261;28;20066;-84
2023/06/12 04:59:42;;;;;;;5.63;4.10;;;;;;;19.83;62.00;101533.47;5089817;28;20032;-84
2023/06/12 05:02:08;;;;;;;5.72;4.47;;;;;;;19.63;64.48;101529.69;5089676;28;20546;-84
2023/06/12 05:04:36;;;;;;;6.20;4.45;;;;;;;19.70;63.85;101538.13;5077194;28;20034;-85
2023/06/12 05:07:08;;;;;;;6.15;4.13;;;;;;;19.74;64.34;101538.09;5094025;28;20111;-84
2023/06/12 05:09:33;;;;;;;5.85;4.57;;;;;;;19.76;62.85;101538.47;5094845;28;20027;-84
2023/06/12 05:12:00;;;;;;;6.10;3.60;;;;;;;19.88;64.38;101535.88;5091179;28;20027;-84
2023/06/12 05:14:27;;;;;;;6.63;4.32;;;;;;;19.88;63.90;101535.88;5095101;28;20144;-84
2023/06/12 05:16:54;;;;;;;5.82;4.25;;;;;;;20.02;62.51;101537.69;5089477;28;20039;-84
2023/06/12 05:19:19;;;;;;;7.20;6.30;;;;;;;19.90;65.01;101547.59;5085091;28;20024;-84
2023/06/12 05:21:45;;;;;;;5.30;4.25;;;;;;;20.08;64.21;101550.19;5093803;28;20035;-85
2023/06/12 05:24:10;;;;;;;9.63;4.85;;;;;;;20.08;63.93;101553.03;5072380;28;20040;-84
2023/06/12 05:26:35;;;;;;;10.30;5.32;;;;;;;19.87;69.18;101545.59;5087071;28;20028;-84
2023/06/12 05:29:01;;;;;;;7.07;4.75;;;;;;;19.89;67.85;101550.88;5091317;28;20480;-84
2023/06/12 05:31:28;;;;;;;11.13;4.97;;;;;;;19.93;64.66;101548.78;5089200;28;20914;-84
2023/06/12 05:33:54;;;;;;;7.50;4.22;;;;;;;19.83;64.74;101544.06;5089170;28;20034;-84
2023/06/12 05:36:20;;;;;;;7.53;4.18;;;;;;;20.00;64.63;101554.34;5087132;28;20396;-84
2023/06/12 05:38:46;;;;;;;7.63;4.47;;;;;;;19.72;66.19;101546.22;5093861;28;20109;-84
2023/06/12 05:41:13;;;;;;;7.65;4.97;;;;;;;19.94;66.67;101550.38;5085498;28;20028;-84
2023/06/12 05:43:39;;;;;;;6.80;4.88;;;;;;;19.92;69.80;101552.84;5095091;28;20596;-84
2023/06/12 05:46:04;;;;;;;8.95;5.03;;;;;;;19.92;70.24;101546.38;5087731;28;20098;-84
2023/06/12 05:48:30;;;;;;;10.38;5.35;;;;;;;19.94;70.77;101544.69;5077503;28;20031;-84
2023/06/12 05:50:55;;;;;;;6.13;4.80;;;;;;;20.04;65.60;101543.75;5088488;28;20487;-84
2023/06/12 05:53:20;;;;;;;9.02;4.53;;;;;;;20.05;65.83;101551.06;5101660;28;20083;-84
2023/06/12 05:55:46;;;;;;;5.72;4.68;;;;;;;20.15;66.61;101554.97;5080839;28;20518;-84
2023/06/12 05:58:11;;;;;;;9.88;5.78;;;;;;;20.20;69.25;101556.53;5091371;28;20032;-84
2023/06/12 06:00:37;;;;;;;9.50;5.05;;;;;;;20.16;68.63;101561.47;5081147;28;20063;-85
2023/06/12 06:03:04;;;;;;;5.38;4.72;;;;;;;20.24;67.52;101557.28;5088783;28;20031;-84
2023/06/12 06:05:30;;;;;;;7.18;5.38;;;;;;;19.93;67.30;101554.47;5085118;28;20023;-84
2023/06/12 06:07:55;;;;;;;6.20;4.22;;;;;;;20.31;64.22;101571.38;5093289;28;20395;-84
2023/06/12 06:10:21;;;;;;;7.70;4.80;;;;;;;20.38;64.97;101568.44;5082486;28;20102;-76
2023/06/12 06:12:46;;;;;;;7.22;5.13;;;;;;;21.07;65.12;101562.44;5080533;28;20095;-87
2023/06/12 06:15:12;;;;;;;5.35;4.15;;;;;;;22.17;65.10;101569.19;5088048;28;20035;-83
2023/06/12 06:17:37;;;;;;;5.25;4.32;;;;;;;22.38;59.85;101568.72;5089298;28;20031;-83
2023/06/12 06:20:05;;;;;;;4.57;4.15;;;;;;;21.78;62.01;101565.97;5096570;28;20386;-84
2023/06/12 06:22:31;;;;;;;6.78;4.10;;;;;;;21.69;61.61;101562.88;5074220;28;20052;-83
2023/06/12 06:24:57;;;;;;;4.70;3.40;;;;;;;22.36;62.29;101576.91;5069859;28;20499;-83
2023/06/12 06:27:22;;;;;;;8.95;4.53;;;;;;;22.78;60.62;101571.41;5069208;28;22094;-83
2023/06/12 06:29:47;;;;;;;6.20;3.97;;;;;;;22.57;63.37;101569.91;5074653;28;20472;-84
2023/06/12 06:32:13;;;;;;;4.80;3.95;;;;;;;22.74;62.51;101573.56;5069685;28;20036;-83
2023/06/12 06:34:38;;;;;;;6.43;4.75;;;;;;;23.03;61.15;101584.28;5068468;28;20035;-83
2023/06/12 06:37:04;;;;;;;9.23;5.00;;;;;;;22.33;58.46;101572.09;5072963;28;20119;-82
2023/06/12 06:39:29;;;;;;;4.50;3.80;;;;;;;23.11;60.81;101580.78;5074286;28;20078;-82
2023/06/12 06:41:55;;;;;;;8.02;4.20;;;;;;;23.45;59.77;101581.50;5075176;28;20527;-82
2023/06/12 06:44:20;;;;;;;8.82;4.65;;;;;;;23.23;57.66;101581.28;5078744;28;20031;-82
2023/06/12 06:46:45;;;;;;;7.78;4.75;;;;;;;22.72;59.56;101581.75;5077818;28;20040;-83
2023/06/12 06:49:11;;;;;;;6.05;4.43;;;;;;;23.03;60.15;101578.56;5072981;28;21471;-83
2023/06/12 06:51:36;;;;;;;4.38;3.95;;;;;;;23.49;58.71;101574.44;5070147;28;20267;-83
2023/06/12 06:54:02;;;;;;;4.88;4.07;;;;;;;23.14;58.09;101573.38;5078780;28;20032;-83
2023/06/12 06:56:29;;;;;;;8.65;4.75;;;;;;;22.75;61.33;101575.16;5074566;28;20044;-83
2023/06/12 06:58:55;;;;;;;6.65;4.20;;;;;;;23.50;58.84;101572.38;5075324;28;20032;-83
2023/06/12 07:01:20;;;;;;;6.53;4.30;;;;;;;23.37;59.66;101569.47;5073954;28;20043;-82
2023/06/12 07:03:45;;;;;;;5.90;3.75;;;;;;;23.62;58.60;101577.34;5071912;28;20086;-83
2023/06/12 07:06:11;;;;;;;5.45;3.70;;;;;;;23.38;59.71;101565.38;5071287;28;20966;-83
2023/06/12 07:08:36;;;;;;;4.63;3.72;;;;;;;23.68;57.81;101566.97;5071237;28;20111;-82
2023/06/12 07:11:01;;;;;;;8.55;4.28;;;;;;;23.13;60.34;101566.06;5072607;28;20602;-82
2023/06/12 07:13:27;;;;;;;6.35;4.68;;;;;;;23.45;58.64;101561.50;5083901;28;20081;-82
2023/06/12 07:15:52;;;;;;;5.10;3.92;;;;;;;23.45;59.09;101567.22;5078262;28;20081;-83
2023/06/12 07:18:18;;;;;;;6.60;4.43;;;;;;;23.14;58.58;101562.75;5073733;28;20110;-82
2023/06/12 07:20:43;;;;;;;6.50;4.72;;;;;;;22.84;59.65;101554.56;5075148;28;20032;-83
2023/06/12 07:23:08;;;;;;;5.85;3.92;;;;;;;23.57;58.70;101555.03;5088104;28;20094;-83
2023/06/12 07:25:34;;;;;;;5.43;4.18;;;;;;;23.37;58.46;101549.47;5094459;28;20047;-83
2023/06/12 07:27:59;;;;;;;7.82;3.88;;;;;;;23.45;58.63;101552.94;5085590;28;20036;-83
2023/06/12 07:30:25;;;;;;;7.65;4.28;;;;;;;23.40;59.11;101562.03;5093072;28;20031;-83
2023/06/12 07:32:50;;;;;;;6.45;3.72;;;;;;;23.34;59.24;101553.25;5093493;28;20028;-83
2023/06/12 07:35:16;;;;;;;6.35;4.15;;;;;;;23.59;58.20;101552.53;5082629;28;20035;-83
2023/06/12 07:37:42;;;;;;;7.57;4.90;;;;;;;23.21;59.83;101550.34;5100363;28;20078;-83
2023/06/12 07:40:09;;;;;;;5.65;4.38;;;;;;;23.19;59.77;101552.84;5097293;28;20034;-83
2023/06/12 07:42:35;;;;;;;4.72;3.75;;;;;;;23.73;58.54;101562.72;5098427;28;20032;-83
2023/06/12 07:45:01;;;;;;;8.30;5.22;;;;;;;23.13;60.11;101555.44;5094954;28;20450;-83
2023/06/12 07:47:26;;;;;;;6.75;4.28;;;;;;;23.69;58.72;101551.41;5077885;28;20039;-83
2023/06/12 07:49:51;;;;;;;6.05;4.97;;;;;;;23.64;58.44;101554.81;5093480;28;20035;-80
2023/06/12 07:52:17;;;;;;;8.30;5.45;;;;;;;23.48;59.81;101552.03;5094450;28;20027;-80
2023/06/12 07:54:45;;;;;;;7.63;5.65;;;;;;;23.14;60.05;101544.81;5075281;28;20035;-80
2023/06/12 07:57:10;;;;;;;8.30;4.75;;;;;;;23.33;59.84;101548.78;5092210;28;20472;-80
2023/06/12 07:59:36;;;;;;;10.60;5.63;;;;;;;23.43;59.00;101544.81;5095556;28;20034;-80
2023/06/12 08:02:02;;;;;;;7.78;5.32;;;;;;;23.56;59.46;101536.28;5079125;28;20055;-80
2023/06/12 08:04:29;;;;;;;9.40;5.75;;;;;;;23.45;59.49;101541.50;5093020;28;20031;-80
2023/06/12 08:06:54;;;;;;;7.20;4.97;;;;;;;23.55;60.04;101546.13;5095536;28;20112;-80
2023/06/12 08:09:20;;;;;;;7.32;5.20;;;;;;;23.78;59.18;101541.38;5079790;28;20123;-80
2023/06/12 08:11:45;;;;;;;10.60;4.22;;;;;;;23.94;59.32;101555.59;5091146;28;20046;-81
2023/06/12 08:14:11;;;;;;;7.10;4.07;;;;;;;24.17;58.97;101553.69;5064556;28;20081;-81
2023/06/12 08:16:37;;;;;;;7.80;5.10;;;;;;;24.42;57.54;101545.09;5097121;28;20452;-82
2023/06/12 08:19:02;;;;;;;9.27;5.45;;;;;;;24.39;56.95;101546.00;5083788;28;20106;-82
2023/06/12 08:21:28;;;;;;;7.13;3.97;;;;;;;24.45;57.56;101564.19;5090733;28;20032;-82
2023/06/12 08:23:53;;;;;;;6.07;4.72;;;;;;;24.61;56.98;101553.94;5080647;28;20043;-82
2023/06/12 08:26:19;;;;;;;7.43;5.30;;;;;;;24.80;55.78;101554.94;5093992;28;20436;-81
2023/06/12 08:28:51;;;;;;;6.25;5.57;;;;;;;24.86;55.43;101553.88;5083424;28;20031;-82
2023/06/12 08:31:16;;;;;;;;;;;;;;;24.95;52.13;101559.69;5100245;28;20057;-82
2023/06/12 08:33:42;;;;;;;6.43;5.13;;;;;;;25.12;53.67;101546.00;5078839;28;20405;-81
2023/06/12 08:36:07;;;;;;;7.05;5.15;;;;;;;25.07;54.68;101538.00;5074973;28;20063;-83
2023/06/12 08:38:32;;;;;;;8.57;5.50;;;;;;;25.22;53.96;101555.50;5094906;28;20475;-81
2023/06/12 08:41:01;;;;;;;6.57;4.43;;;;;;;25.29;53.96;101549.50;5096635;28;20740;-82
2023/06/12 08:43:28;;;;;;;10.95;6.10;;;;;;;25.34;53.56;101551.81;5094133;28;20036;-82
2023/06/12 08:45:57;;;;;;;10.25;5.35;;;;;;;25.35;53.08;101553.38;5095395;28;20036;-81
2023/06/12 08:48:25;;;;;;;7.13;5.13;;;;;;;25.49;51.51;101562.75;5068583;28;20032;-81
2023/06/12 08:50:52;;;;;;;5.50;4.95;;;;;;;25.55;53.00;101550.22;5078718;28;20030;-81
2023/06/12 08:53:17;;;;;;;11.63;5.88;;;;;;;25.37;52.76;101549.28;5084930;28;20155;-81
2023/06/12 08:55:44;;;;;;;7.20;6.07;;;;;;;25.57;52.57;101552.59;5095647;28;20472;-80
2023/06/12 08:58:11;;;;;;;10.20;6.13;;;;;;;25.86;52.67;101542.91;5092877;28;20031;-80
2023/06/12 09:00:37;;;;;;;6.55;5.15;;;;;;;25.88;53.32;101544.03;5093930;28;20096;-80
2023/06/12 09:03:06;;;;;;;7.25;5.70;;;;;;;25.80;51.42;101541.91;5099288;28;20608;-80
2023/06/12 09:05:34;;;;;;;8.43;5.78;;;;;;;26.16;50.43;101536.41;5093358;28;20046;-81
2023/06/12 09:08:00;;;;;;;9.15;5.32;;;;;;;26.26;48.72;101539.31;5098311;28;20027;-81
2023/06/12 09:10:26;;;;;;;9.15;5.15;;;;;;;26.49;46.43;101547.34;5092676;28;20034;-80
2023/06/12 09:12:55;;;;;;;7.38;6.00;;;;;;;26.53;44.62;101542.28;5086428;28;20036;-81
2023/06/12 09:15:22;;;;;;;8.68;5.43;;;;;;;26.82;45.40;101546.84;5090328;28;20042;-80
2023/06/12 09:17:55;;;;;;;11.57;5.82;;;;;;;26.64;43.98;101543.94;5098276;28;20062;-80
2023/06/12 09:20:26;;;;;;;7.60;5.50;;;;;;;26.51;45.58;101539.06;5100005;28;20024;-81
2023/06/12 09:22:52;;;;;;;9.55;5.93;;;;;;;26.67;44.08;101540.09;5101449;28;20761;-83
2023/06/12 09:25:19;;;;;;;6.72;5.63;;;;;;;26.75;43.89;101542.22;5078723;28;20031;-82
2023/06/12 09:27:45;;;;;;;7.25;5.53;;;;;;;26.55;41.05;101528.25;5100796;28;20106;-82
2023/06/12 09:30:11;;;;;;;5.88;5.03;;;;;;;26.88;42.29;101539.19;5088062;28;20046;-82
2023/06/12 09:32:36;;;;;;;7.28;5.25;;;;;;;27.06;40.94;101529.00;5089841;28;20028;-82
2023/06/12 09:35:03;;;;;;;6.45;5.50;;;;;;;26.79;41.47;101529.75;5098439;28;20032;-81
2023/06/12 09:37:29;;;;;;;6.65;5.38;;;;;;;26.97;40.88;101539.19;5082612;28;20035;-81
2023/06/12 09:40:11;;;;;;;8.90;5.95;;;;;;;27.22;44.03;101528.72;5096692;28;20046;-81
2023/06/12 09:42:38;;;;;;;9.07;6.05;;;;;;;27.28;41.12;101531.72;5082302;28;20042;-83
2023/06/12 09:45:23;;;;;;;8.82;6.72;;;;;;;27.55;39.72;101525.16;5090345;28;20035;-81
2023/06/12 09:47:50;;;;;;;7.47;5.90;;;;;;;27.65;44.06;101532.47;5089824;28;20042;-80
2023/06/12 09:50:19;;;;;;;9.75;6.70;;;;;;;27.74;40.28;101529.59;5096250;28;20023;-81
2023/06/12 09:52:46;;;;;;;9.38;6.75;;;;;;;27.86;39.62;101532.78;5094969;28;20169;-82
2023/06/12 09:55:14;;;;;;;7.75;5.60;;;;;;;28.33;39.86;101537.06;5091541;28;20107;-81
2023/06/12 09:57:42;;;;;;;7.55;6.55;;;;;;;27.96;37.27;101531.47;5091292;28;20468;-84
2023/06/12 10:00:11;;;;;;;6.60;5.90;;;;;;;28.33;37.94;101528.44;5094536;28;20020;-84
2023/06/12 10:02:43;;;;;;;7.93;5.93;;;;;;;28.21;37.81;101523.69;5078940;28;20594;-84
2023/06/12 10:05:20;;;;;;;6.93;6.10;;;;;;;28.45;38.49;101533.16;5096519;28;20476;-84
2023/06/12 10:07:48;;;;;;;7.13;6.28;;;;;;;28.35;38.71;101531.63;5092029;28;20574;-80
2023/06/12 10:10:16;;;;;;;9.00;7.03;;;;;;;28.63;35.96;101517.09;5077588;28;20480;-83
2023/06/12 10:12:43;;;;;;;7.82;7.00;;;;;;;28.53;35.55;101520.03;5077445;28;20035;-83
2023/06/12 10:15:09;;;;;;;7.32;6.10;;;;;;;28.66;37.12;101524.78;5091406;28;20032;-83
2023/06/12 10:17:35;;;;;;;7.22;6.53;;;;;;;28.37;35.22;101523.28;5077451;28;20027;-82
2023/06/12 10:20:03;;;;;;;7.38;6.53;;;;;;;28.43;36.91;101527.09;5089048;28;20058;-83
2023/06/12 10:22:28;;;;;;;7.40;6.25;;;;;;;28.13;36.74;101514.63;5097365;28;20047;-84
2023/06/12 10:24:57;;;;;;;6.82;6.13;;;;;;;28.18;34.68;101516.84;5093257;28;20607;-83
2023/06/12 10:27:23;;;;;;;8.45;6.18;;;;;;;28.21;35.83;101523.69;5100059;28;20031;-82
2023/06/12 10:29:56;;;;;;;8.80;6.72;;;;;;;28.60;35.48;101512.34;5096332;28;20564;-82
2023/06/12 10:32:23;;;;;;;7.65;5.72;;;;;;;28.70;37.37;101508.91;5082217;28;20488;-82
2023/06/12 10:34:53;;;;;;;13.68;7.47;;;;;;;29.06;34.08;101520.66;5096497;28;20019;-82
2023/06/12 10:37:26;;;;;;;6.20;5.18;;;;;;;29.21;33.21;101509.19;5075233;28;20039;-82
2023/06/12 10:40:30;;;;;;;9.73;7.07;;;;;;;29.18;32.51;101503.09;5094362;28;20100;-82
2023/06/12 10:43:03;;;;;;;8.75;5.78;;;;;;;28.83;33.02;101497.13;5037727;28;20056;-83
2023/06/12 10:45:30;;;;;;;10.63;6.07;;;;;;;28.87;33.45;101491.97;5029742;28;20043;-82
2023/06/12 10:48:02;;;;;;;6.30;5.70;;;;;;;29.14;35.08;101511.16;5047616;28;20525;-82
2023/06/12 10:50:48;;;;;;;8.23;6.07;;;;;;;29.46;36.56;101499.16;5090587;28;20111;-82
2023/06/12 10:53:20;;;;;;;7.53;6.53;;;;;;;29.47;32.95;101501.53;5093338;28;20164;-81
2023/06/12 10:55:45;;;;;;;8.38;6.10;;;;;;;29.26;33.31;101500.63;5097078;28;20027;-80
2023/06/12 10:58:14;;;;;;;8.82;6.00;;;;;;;29.18;32.62;101487.91;5097038;28;20034;-80
2023/06/12 11:00:51;;;;;;;8.10;7.13;;;;;;;29.26;31.58;101489.09;5073117;28;20495;-80
2023/06/12 11:03:28;;;;;;;7.13;5.72;;;;;;;29.23;33.26;101490.09;5067285;28;20035;-76
2023/06/12 11:05:58;;;;;;;7.05;6.35;;;;;;;29.55;29.07;101482.53;5074538;28;20047;-79
2023/06/12 11:08:26;;;;;;;7.47;5.65;;;;;;;29.66;29.16;101487.72;5092087;28;20516;-79
2023/06/12 11:10:51;;;;;;;5.50;4.93;;;;;;;29.99;27.84;101481.75;5092508;28;20020;-79
2023/06/12 11:13:21;;;;;;;5.90;5.30;;;;;;;30.18;26.79;101488.06;5094888;28;20494;-79
2023/06/12 11:15:47;;;;;;;7.18;5.88;;;;;;;30.11;26.70;101482.72;5090274;28;20113;-79
2023/06/12 11:18:13;;;;;;;7.47;5.28;;;;;;;30.54;26.97;101485.97;5093590;28;20031;-79
2023/06/12 11:20:40;;;;;;;7.10;5.70;;;;;;;30.63;26.44;101482.16;5093363;28;20062;-79
2023/06/12 11:23:06;;;;;;;6.18;5.30;;;;;;;30.62;26.44;101480.56;5097290;28;20044;-79